Aqaba Port, Jordan

7:58 AM EEST on June 03, 2015 (GMT +0300)
Eilat | | Change Station
CLOSE
Current Station
Airport
Location: Eilat,
Elevation: 39 ft
Nearby Weather Stations

Elev 39 ft 29.56 °N, 34.96 °E | Updated 8 minutes ago

Clear
Clear
79 °F
Feels Like 79 °F
N
17
Wind Variable Wind from NNE

Today
High -- | Low -- °F
--% Chance of Precip.
Yesterday
High -- | Low -- °F
Precip. -- in
5:40 AM 7:36 PM
Full, 100% visible
Pressure 29.92 in
Visibility -9999.0 miles
Clouds
Dew Point 54 °F
Humidity 42%
Rainfall 0.00 in
Snow Depth Not available.
UV Not available.
Pollen Not available.
Air Quality Not available.
Flu Activity Not available.
METAR LLET 030450Z 03015KT CAVOK 26/12 Q1013

More Conditions Fewer Conditions

Pressure 29.92 in
Visibility -9999.0 miles
Clouds
Dew Point 54 °F
Humidity 42%
Rainfall 0.00 in
Snow Depth Not available.
UV Not available.
Pollen Not available.
Air Quality Not available.
Flu Activity Not available.
METAR LLET 030450Z 03015KT CAVOK 26/12 Q1013

More Conditions Fewer Conditions

10-Day Weather Forecast

×

Almanac

Astronomy

Jun. 03, 2015 Rise Set
Actual Time
Civil Twilight
Nautical Twilight
Astronomical Twilight
Moon
Length of Visible Light
Length of Day
Tomorrow will be .
, % of the Moon is Illuminated

Today's Extremes

Country Highs Country Lows

Community

WunderPhotos

Upload Photos

1,826,166 photos uploaded!

WunderBlogs® & News

Nearby

Air Quality

  Air Quality AQ Index Pollutant
Not available.

Snow Depth

Station Depth Elevation

Earthquake Activity

City Distance Mag. Time & Date
Minimum magnitude displayed is 2.5.

Coastal Water Temperatures

Place Temperature

Stations

Nearby Weather Stations

Station Location Temp. Windchill Dew Point Humidity Wind Precip. Elev Updated Type